Pagina principală
METAR-TAF:

METAR-TAF

Aeroporturi :

Enugu, Nigeria

Latitudine: 06-28N, longitudine: 007-33E, elevație: 137 m

Observații meteo curente

Raportul a fost făcut în urmă cu 3 ore și 16 de minute, la 13:00 UTC
Vânt calm
Temperatură 32°C
Umiditate 67%
Presiune 1011 hPa
Vizibilitate de 10 km sau mai mult
Nori fragmentați la o înălțime de 1200 picior

METAR: DNEN 131300Z 00000KT 9999 BKN012 32/25 Q1011 NOSIG

Ora: 17:16 (16:16 UTC)


TAF: lipsă

Observații și prognoze meteo pentru peste 4.000 de aeroporturi (rapoarte METAR și TAF).

Stațiile disponibile sunt reprezentate pe hartă prin puncte galbene și roșii.

Țineți indicatorul mouse-ului pe punctul dorit pentru a vedea denumirea stației.

Apoi, faceți clic pentru a vedea observațiile și prognozele meteorologice.

Pentru a schimba harta: Pentru mărire, faceți clic pe butoanele verzi cu cruce neagră; pentru micșorare, pe butonul verde cu o liniuță; pentru hărți învecinate, pe săgețile verzi.


METAR-TAF: